createdAt,value
2022-10-24T00:02:26.799Z,19.80
2022-10-24T00:04:53.711Z,17.48
2022-10-24T00:07:20.338Z,14.50
2022-10-24T00:09:46.901Z,12.07
2022-10-24T00:12:13.675Z,12.77
2022-10-24T00:14:40.351Z,15.65
2022-10-24T00:17:07.336Z,9.45
2022-10-24T00:19:33.951Z,13.60
2022-10-24T00:22:00.546Z,11.10
2022-10-24T00:24:27.198Z,11.02
2022-10-24T00:26:53.821Z,13.82
2022-10-24T00:29:20.401Z,10.98
2022-10-24T00:31:47.031Z,14.68
2022-10-24T00:34:13.633Z,9.68
2022-10-24T00:36:40.235Z,11.25
2022-10-24T00:39:06.854Z,13.00
2022-10-24T00:41:41.928Z,11.07
2022-10-24T00:44:30.298Z,10.52
2022-10-24T00:47:02.256Z,9.32
2022-10-24T00:50:00.780Z,10.27
2022-10-24T00:52:31.614Z,13.07
2022-10-24T00:55:01.427Z,12.40
2022-10-24T00:57:34.125Z,11.77
2022-10-24T01:00:07.065Z,14.20
2022-10-24T01:05:01.353Z,10.75
2022-10-24T01:07:47.320Z,12.85
2022-10-24T01:10:38.498Z,13.02
2022-10-24T01:13:16.965Z,13.70
2022-10-24T01:16:11.383Z,13.10
2022-10-24T01:18:40.637Z,9.90
2022-10-24T01:21:29.084Z,9.80
2022-10-24T01:24:35.086Z,13.93
2022-10-24T01:27:19.841Z,10.77
2022-10-24T01:30:08.917Z,15.60
2022-10-24T01:33:06.102Z,18.10
2022-10-24T01:36:14.591Z,14.32
2022-10-24T01:38:46.619Z,16.75
2022-10-24T01:41:20.003Z,16.60
2022-10-24T01:43:56.165Z,15.13
2022-10-24T01:46:29.816Z,15.05
2022-10-24T01:49:19.400Z,15.15
2022-10-24T01:51:49.223Z,13.57
2022-10-24T01:54:16.458Z,10.77
2022-10-24T01:56:43.051Z,13.15
2022-10-24T01:59:29.542Z,13.88
2022-10-24T02:02:28.464Z,11.65
2022-10-24T02:05:12.466Z,11.85
2022-10-24T02:07:41.599Z,12.32
2022-10-24T02:10:13.451Z,11.57
2022-10-24T02:12:46.760Z,13.23
2022-10-24T02:15:29.415Z,17.08
2022-10-24T02:17:56.785Z,11.55
2022-10-24T02:20:33.807Z,12.48
2022-10-24T02:23:17.377Z,13.57
2022-10-24T02:25:48.180Z,18.05
2022-10-24T02:28:18.321Z,11.43
2022-10-24T02:30:54.090Z,12.77
2022-10-24T02:33:21.751Z,11.20
2022-10-24T02:35:50.201Z,11.00
2022-10-24T02:38:28.643Z,14.18
2022-10-24T02:40:58.189Z,13.82
2022-10-24T02:43:26.726Z,11.32
2022-10-24T02:45:56.238Z,12.32
2022-10-24T02:48:29.784Z,13.98
2022-10-24T02:50:56.456Z,14.73
2022-10-24T02:53:25.634Z,12.75
2022-10-24T02:55:52.682Z,8.52
2022-10-24T02:58:19.459Z,13.75
2022-10-24T03:00:46.142Z,11.07
2022-10-24T03:03:13.157Z,16.48
2022-10-24T03:05:39.762Z,15.77
2022-10-24T03:08:06.335Z,13.77
2022-10-24T03:10:32.895Z,13.48
2022-10-24T03:13:00.695Z,15.30
2022-10-24T03:15:27.272Z,12.40
2022-10-24T03:17:53.845Z,10.70
2022-10-24T03:20:20.473Z,11.00
2022-10-24T03:22:47.050Z,13.02
2022-10-24T03:25:13.671Z,14.88
2022-10-24T03:27:40.315Z,16.67
2022-10-24T03:30:07.565Z,15.82
2022-10-24T03:32:34.978Z,14.43
2022-10-24T03:35:02.283Z,12.60
2022-10-24T03:37:29.462Z,12.63
2022-10-24T03:39:56.066Z,12.05
2022-10-24T03:42:22.622Z,11.32
2022-10-24T03:44:49.189Z,9.95
2022-10-24T03:47:16.033Z,15.88
2022-10-24T03:49:42.613Z,16.10
2022-10-24T03:52:09.201Z,17.40
2022-10-24T03:54:35.931Z,12.93
2022-10-24T03:57:02.787Z,16.65
2022-10-24T03:59:29.427Z,12.60
2022-10-24T04:01:56.130Z,12.73
2022-10-24T04:04:22.723Z,13.20
2022-10-24T04:06:49.302Z,11.80
2022-10-24T04:09:15.922Z,16.73
2022-10-24T04:11:42.495Z,17.33
2022-10-24T04:14:09.620Z,14.55
2022-10-24T04:16:36.350Z,15.00
2022-10-24T04:19:02.970Z,12.27
2022-10-24T04:21:29.603Z,18.70
2022-10-24T04:23:56.636Z,14.18
2022-10-24T04:26:23.588Z,12.57
2022-10-24T04:28:50.874Z,16.05
2022-10-24T04:31:20.893Z,18.88
2022-10-24T04:33:50.086Z,19.02
2022-10-24T04:36:16.695Z,15.43
2022-10-24T04:38:43.277Z,16.77
2022-10-24T04:41:12.074Z,16.80
2022-10-24T04:43:39.737Z,17.15
2022-10-24T04:46:07.029Z,12.95
2022-10-24T04:48:33.719Z,14.73
2022-10-24T04:51:00.530Z,18.67
2022-10-24T04:53:27.335Z,15.15
2022-10-24T04:55:53.898Z,18.92
2022-10-24T04:58:21.039Z,15.52
2022-10-24T05:00:49.767Z,20.00
2022-10-24T05:03:20.097Z,17.33
2022-10-24T05:05:47.639Z,16.00
2022-10-24T05:08:14.379Z,14.38
2022-10-24T05:10:41.465Z,14.35
2022-10-24T05:13:08.138Z,15.30
2022-10-24T05:15:35.149Z,18.40
2022-10-24T05:18:01.973Z,15.70
2022-10-24T05:20:28.918Z,16.05
2022-10-24T05:22:55.666Z,14.40
2022-10-24T05:25:22.298Z,20.63
2022-10-24T05:27:48.943Z,19.05
2022-10-24T05:30:15.644Z,17.50
2022-10-24T05:32:42.535Z,16.40
2022-10-24T05:35:09.926Z,16.42
2022-10-24T05:37:37.024Z,15.88
2022-10-24T05:40:03.879Z,16.70
2022-10-24T05:42:30.471Z,16.73
2022-10-24T05:44:57.781Z,15.68
2022-10-24T05:47:25.795Z,17.70
2022-10-24T05:49:55.038Z,19.52
2022-10-24T05:52:21.590Z,22.35
2022-10-24T05:54:55.695Z,17.13
2022-10-24T05:57:33.784Z,19.88
2022-10-24T06:00:00.867Z,16.38
2022-10-24T06:02:27.789Z,18.17
2022-10-24T06:04:56.119Z,15.00
2022-10-24T06:07:23.134Z,15.93
2022-10-24T06:09:49.789Z,19.25
2022-10-24T06:12:16.586Z,19.65
2022-10-24T06:14:44.622Z,13.23
2022-10-24T06:17:14.551Z,13.57
2022-10-24T06:19:41.434Z,16.83
2022-10-24T06:22:09.462Z,22.00
2022-10-24T06:24:37.861Z,13.98
2022-10-24T06:27:05.939Z,13.88
2022-10-24T06:29:33.057Z,16.98
2022-10-24T06:31:59.963Z,16.70
2022-10-24T06:34:26.641Z,19.80
2022-10-24T06:36:53.723Z,15.57
2022-10-24T06:39:20.311Z,18.73
2022-10-24T06:41:46.936Z,23.50
2022-10-24T06:44:15.046Z,17.17
2022-10-24T06:46:41.834Z,17.83
2022-10-24T06:49:08.451Z,17.00
2022-10-24T06:51:35.064Z,15.48
2022-10-24T06:54:01.695Z,15.70
2022-10-24T06:56:28.337Z,20.88
2022-10-24T06:58:55.041Z,19.60
2022-10-24T07:01:23.864Z,18.83
2022-10-24T07:03:51.095Z,20.38
2022-10-24T07:06:24.153Z,17.55
2022-10-24T07:08:52.578Z,15.23
2022-10-24T07:11:19.305Z,18.48
2022-10-24T07:13:45.890Z,21.25
2022-10-24T07:16:12.800Z,15.85
2022-10-24T07:18:39.437Z,22.23
2022-10-24T07:21:09.447Z,24.50
2022-10-24T07:23:36.155Z,17.15
2022-10-24T07:26:05.378Z,15.68
2022-10-24T07:28:32.558Z,17.20
2022-10-24T07:30:59.396Z,16.92
2022-10-24T07:33:26.518Z,12.52
2022-10-24T07:35:53.175Z,12.82
2022-10-24T07:38:20.115Z,14.20
2022-10-24T07:40:47.734Z,15.25
2022-10-24T07:43:15.225Z,17.88
2022-10-24T07:45:44.737Z,14.30
2022-10-24T07:48:14.288Z,16.42
2022-10-24T07:50:46.510Z,14.02
2022-10-24T07:53:14.067Z,17.48
2022-10-24T07:55:42.909Z,18.33
2022-10-24T07:58:10.778Z,17.55
2022-10-24T08:00:42.538Z,18.58
2022-10-24T08:03:11.527Z,18.08
2022-10-24T08:05:42.792Z,14.93
2022-10-24T08:08:30.880Z,15.63
2022-10-24T08:10:56.428Z,16.38
2022-10-24T08:13:23.045Z,17.02
2022-10-24T08:15:49.727Z,14.07
2022-10-24T08:18:16.361Z,12.93
2022-10-24T08:20:43.016Z,13.77
2022-10-24T08:23:09.723Z,14.70
2022-10-24T08:25:40.705Z,14.07
2022-10-24T08:28:09.111Z,11.40
2022-10-24T08:30:35.984Z,16.08
2022-10-24T08:33:02.591Z,11.32
2022-10-24T08:35:29.239Z,10.57
2022-10-24T08:37:55.844Z,13.65
2022-10-24T08:40:22.498Z,11.07
2022-10-24T08:42:49.673Z,9.23
2022-10-24T08:45:44.634Z,10.10
2022-10-24T08:48:18.280Z,13.75
2022-10-24T08:50:49.502Z,12.02
2022-10-24T08:53:24.387Z,11.65
2022-10-24T08:55:51.497Z,10.93
2022-10-24T08:58:41.226Z,13.02
2022-10-24T09:01:16.198Z,12.13
2022-10-24T09:03:57.483Z,15.30
2022-10-24T09:06:27.267Z,14.23
2022-10-24T09:08:58.171Z,10.80
2022-10-24T09:11:43.979Z,12.25
2022-10-24T09:14:21.003Z,14.75
2022-10-24T09:16:59.303Z,12.55
2022-10-24T09:19:28.675Z,19.38
2022-10-24T09:21:58.030Z,11.43
2022-10-24T09:24:33.785Z,14.55
2022-10-24T09:27:04.531Z,15.15
2022-10-24T09:29:33.054Z,15.95
2022-10-24T09:32:00.474Z,12.18
2022-10-24T09:34:27.115Z,16.13
2022-10-24T09:36:53.835Z,18.75
2022-10-24T09:39:32.349Z,14.10
2022-10-24T09:42:00.140Z,10.80
2022-10-24T09:44:44.043Z,25.58
2022-10-24T09:47:26.029Z,14.68
2022-10-24T09:49:52.894Z,13.75
2022-10-24T09:52:25.896Z,14.70
2022-10-24T09:55:27.594Z,16.05
2022-10-24T09:58:00.200Z,19.27
2022-10-24T10:00:37.949Z,17.40
2022-10-24T10:03:23.977Z,12.10
2022-10-24T10:05:54.185Z,19.15
2022-10-24T10:08:25.406Z,12.48
2022-10-24T10:11:12.566Z,15.95
2022-10-24T10:13:53.727Z,13.77
2022-10-24T10:16:27.938Z,13.02
2022-10-24T10:19:14.246Z,12.70
2022-10-24T10:21:55.445Z,13.73
2022-10-24T10:24:41.295Z,15.60
2022-10-24T10:27:30.381Z,17.77
2022-10-24T10:30:12.353Z,14.60
2022-10-24T10:32:57.945Z,14.82
2022-10-24T10:35:39.303Z,16.08
2022-10-24T10:38:34.983Z,18.58
2022-10-24T10:41:32.462Z,15.50
2022-10-24T10:44:08.147Z,19.05
2022-10-24T10:46:47.621Z,16.17
2022-10-24T10:49:28.029Z,14.38
2022-10-24T10:52:03.100Z,12.45
2022-10-24T10:55:13.809Z,18.30
2022-10-24T10:58:13.296Z,15.35
2022-10-24T11:00:42.792Z,19.63
2022-10-24T11:03:43.059Z,12.45
2022-10-24T11:06:12.246Z,12.15
2022-10-24T11:09:09.932Z,14.02
2022-10-24T11:11:42.405Z,17.90
2022-10-24T11:14:30.765Z,10.05
2022-10-24T11:17:05.364Z,14.00
2022-10-24T11:19:56.777Z,15.77
2022-10-24T11:22:29.394Z,18.40
2022-10-24T11:27:36.942Z,11.85
2022-10-24T11:30:19.158Z,13.30
2022-10-24T11:33:02.316Z,16.98
2022-10-24T11:35:33.096Z,12.55
2022-10-24T11:38:21.529Z,8.73
2022-10-24T11:40:58.643Z,10.77
2022-10-24T11:43:46.911Z,15.45
2022-10-24T11:46:20.637Z,13.68
2022-10-24T11:48:53.245Z,13.02
2022-10-24T11:53:55.075Z,10.60
2022-10-24T11:56:40.273Z,14.15
2022-10-24T11:59:12.955Z,12.88
2022-10-24T12:01:54.567Z,15.98
2022-10-24T12:04:48.701Z,9.20
2022-10-24T12:07:49.174Z,9.32
2022-10-24T12:10:41.041Z,8.10
2022-10-24T12:13:22.981Z,12.30
2022-10-24T12:16:08.462Z,15.02
2022-10-24T12:18:48.639Z,10.60
2022-10-24T12:21:25.558Z,15.13
2022-10-24T12:23:56.346Z,12.32
2022-10-24T12:26:31.623Z,16.35
2022-10-24T12:29:04.004Z,17.63
2022-10-24T12:31:33.599Z,11.70
2022-10-24T12:34:15.273Z,13.77
2022-10-24T12:37:04.007Z,11.93
2022-10-24T12:39:56.107Z,14.63
2022-10-24T12:42:25.209Z,10.77
2022-10-24T12:45:44.091Z,15.43
2022-10-24T12:48:34.060Z,13.40
2022-10-24T12:51:33.221Z,15.27
2022-10-24T12:54:07.177Z,16.23
2022-10-24T12:56:34.673Z,13.80
2022-10-24T12:59:30.218Z,13.98
2022-10-24T13:02:18.049Z,14.00
2022-10-24T13:05:14.794Z,13.55
2022-10-24T13:07:48.334Z,13.93
2022-10-24T13:10:47.552Z,13.90
2022-10-24T13:13:35.324Z,19.55
2022-10-24T13:16:16.174Z,14.70
2022-10-24T13:19:06.516Z,18.13
2022-10-24T13:21:49.423Z,14.95
2022-10-24T13:24:15.979Z,13.20
2022-10-24T13:26:46.573Z,19.58
2022-10-24T13:29:35.493Z,22.02
2022-10-24T13:32:05.009Z,17.10
2022-10-24T13:34:44.270Z,15.50
2022-10-24T13:37:10.801Z,13.57
2022-10-24T13:39:42.529Z,13.48
2022-10-24T13:42:23.482Z,16.05
2022-10-24T13:44:53.257Z,10.77
2022-10-24T13:47:29.827Z,12.15
2022-10-24T13:50:13.208Z,18.95
2022-10-24T13:52:50.208Z,14.20
2022-10-24T13:55:32.123Z,10.13
2022-10-24T13:58:00.567Z,10.07
2022-10-24T14:00:31.568Z,12.07
2022-10-24T14:03:00.889Z,8.20
2022-10-24T14:05:49.002Z,11.30
2022-10-24T14:08:42.110Z,12.27
2022-10-24T14:11:14.242Z,12.02
2022-10-24T14:13:49.660Z,12.45
2022-10-24T14:16:16.499Z,14.73
2022-10-24T14:18:44.675Z,12.82
2022-10-24T14:21:20.742Z,21.80
2022-10-24T14:23:59.039Z,17.40
2022-10-24T14:26:26.155Z,15.25
2022-10-24T14:28:59.989Z,15.25
2022-10-24T14:31:37.506Z,11.43
2022-10-24T14:34:06.302Z,9.10
2022-10-24T14:36:38.406Z,11.90
2022-10-24T14:39:05.319Z,12.02
2022-10-24T14:41:40.032Z,12.15
2022-10-24T14:44:07.482Z,14.77
2022-10-24T14:46:40.176Z,12.18
2022-10-24T14:49:28.383Z,12.95
2022-10-24T14:52:00.111Z,16.10
2022-10-24T14:54:32.215Z,15.95
2022-10-24T14:57:00.809Z,16.52
2022-10-24T14:59:37.421Z,14.63
2022-10-24T15:02:19.583Z,11.93
2022-10-24T15:04:46.429Z,12.77
2022-10-24T15:07:23.252Z,9.57
2022-10-24T15:09:53.157Z,18.83
2022-10-24T15:12:42.888Z,14.25
2022-10-24T15:15:34.523Z,11.13
2022-10-24T15:18:13.250Z,16.77
2022-10-24T15:20:41.027Z,17.98
2022-10-24T15:23:20.934Z,18.00
2022-10-24T15:26:02.405Z,18.48
2022-10-24T15:28:45.459Z,20.05
2022-10-24T15:31:17.713Z,24.10
2022-10-24T15:33:45.519Z,17.58
2022-10-24T15:36:22.977Z,21.90
2022-10-24T15:38:57.433Z,29.15
2022-10-24T15:41:26.977Z,20.67
2022-10-24T15:43:54.682Z,23.02
2022-10-24T15:46:22.118Z,25.20
2022-10-24T15:48:49.742Z,26.98
2022-10-24T15:51:19.163Z,23.13
2022-10-24T15:53:47.098Z,23.15
2022-10-24T15:56:13.789Z,24.02
2022-10-24T15:58:41.090Z,23.45
2022-10-24T16:01:20.119Z,23.63
2022-10-24T16:03:46.836Z,21.25
2022-10-24T16:06:13.498Z,19.92
2022-10-24T16:08:40.123Z,19.88
2022-10-24T16:11:10.027Z,19.25
2022-10-24T16:13:36.782Z,20.30
2022-10-24T16:16:03.519Z,22.63
2022-10-24T16:18:30.125Z,19.10
2022-10-24T16:20:58.249Z,18.55
2022-10-24T16:23:26.546Z,16.58
2022-10-24T16:25:54.447Z,19.90
2022-10-24T16:28:23.898Z,16.95
2022-10-24T16:30:50.883Z,18.10
2022-10-24T16:33:20.545Z,16.50
2022-10-24T16:35:50.127Z,18.45
2022-10-24T16:38:16.849Z,20.90
2022-10-24T16:40:46.815Z,19.38
2022-10-24T16:43:16.407Z,18.17
2022-10-24T16:45:43.374Z,20.80
2022-10-24T16:48:10.961Z,17.45
2022-10-24T16:50:46.383Z,18.45
2022-10-24T16:53:15.439Z,23.77
2022-10-24T16:55:48.319Z,18.85
2022-10-24T16:58:15.519Z,20.88
2022-10-24T17:00:42.142Z,19.00
2022-10-24T17:03:09.051Z,18.15
2022-10-24T17:05:35.733Z,23.75
2022-10-24T17:08:02.646Z,20.38
2022-10-24T17:10:29.368Z,18.25
2022-10-24T17:12:56.554Z,23.88
2022-10-24T17:15:23.290Z,20.30
2022-10-24T17:17:50.468Z,18.67
2022-10-24T17:20:17.532Z,16.40
2022-10-24T17:22:45.377Z,22.27
2022-10-24T17:25:24.982Z,19.13
2022-10-24T17:27:52.369Z,17.80
2022-10-24T17:30:22.450Z,20.33
2022-10-24T17:32:49.993Z,21.15
2022-10-24T17:35:20.626Z,21.42
2022-10-24T17:38:19.737Z,17.10
2022-10-24T17:40:49.050Z,17.50
2022-10-24T17:43:27.356Z,22.48
2022-10-24T17:45:56.105Z,19.05
2022-10-24T17:48:24.139Z,18.08
2022-10-24T17:50:52.918Z,20.38
2022-10-24T17:53:19.561Z,23.17
2022-10-24T17:55:47.988Z,20.80
2022-10-24T17:58:16.261Z,17.63
2022-10-24T18:00:44.236Z,18.52
2022-10-24T18:03:11.537Z,27.40
2022-10-24T18:05:38.984Z,16.92
2022-10-24T18:08:08.629Z,25.00
2022-10-24T18:10:40.675Z,19.63
2022-10-24T18:13:07.662Z,28.55
2022-10-24T18:15:35.255Z,19.20
2022-10-24T18:18:01.843Z,13.07
2022-10-24T18:20:28.600Z,8.27
2022-10-24T18:22:55.206Z,10.05
2022-10-24T18:25:23.272Z,5.10
2022-10-24T18:27:50.562Z,3.90
2022-10-24T18:30:19.201Z,10.82
2022-10-24T18:32:46.345Z,4.43
2022-10-24T18:35:13.293Z,2.80
2022-10-24T18:37:39.916Z,3.85
2022-10-24T18:40:07.914Z,3.17
2022-10-24T18:42:48.424Z,3.40
2022-10-24T18:45:21.183Z,2.42
2022-10-24T18:50:18.753Z,6.47
2022-10-24T18:53:03.663Z,2.67
2022-10-24T18:55:32.106Z,4.10
2022-10-24T18:57:58.980Z,6.15
2022-10-24T19:00:30.994Z,5.68
2022-10-24T19:03:22.820Z,2.88
2022-10-24T19:05:58.656Z,5.53
2022-10-24T19:08:27.612Z,3.72
2022-10-24T19:10:56.377Z,3.70
2022-10-24T19:13:25.042Z,2.72
2022-10-24T19:15:58.560Z,1.45
2022-10-24T19:18:27.015Z,4.20
2022-10-24T19:20:53.599Z,4.93
2022-10-24T19:23:20.246Z,1.95
2022-10-24T19:25:46.811Z,2.65
2022-10-24T19:28:17.386Z,2.92
2022-10-24T19:30:44.817Z,2.70
2022-10-24T19:33:12.902Z,2.63
2022-10-24T19:35:46.711Z,1.73
2022-10-24T19:38:18.090Z,2.35
2022-10-24T19:40:46.677Z,2.25
2022-10-24T19:43:13.815Z,1.67
2022-10-24T19:45:49.847Z,2.92
2022-10-24T19:48:25.311Z,2.95
2022-10-24T19:50:51.919Z,3.22
2022-10-24T19:53:19.372Z,3.38
2022-10-24T19:55:45.969Z,4.55
2022-10-24T19:58:15.619Z,2.47
2022-10-24T20:00:42.386Z,3.92
2022-10-24T20:03:09.074Z,3.58
2022-10-24T20:05:36.251Z,4.40
2022-10-24T20:08:03.643Z,4.18
2022-10-24T20:10:30.291Z,3.63
2022-10-24T20:12:56.918Z,5.40
2022-10-24T20:15:23.514Z,7.60
2022-10-24T20:17:50.103Z,5.93
2022-10-24T20:20:18.554Z,4.97
2022-10-24T20:22:45.727Z,8.88
2022-10-24T20:25:12.543Z,6.28
2022-10-24T20:27:39.275Z,4.05
2022-10-24T20:30:06.370Z,2.13
2022-10-24T20:32:32.927Z,4.25
2022-10-24T20:35:00.750Z,4.63
2022-10-24T20:37:27.307Z,5.80
2022-10-24T20:39:53.882Z,2.95
2022-10-24T20:42:22.220Z,5.30
2022-10-24T20:44:48.839Z,5.32
2022-10-24T20:47:15.420Z,2.03
2022-10-24T20:49:41.987Z,6.50
2022-10-24T20:52:08.623Z,5.50
2022-10-24T20:54:35.241Z,3.00
2022-10-24T20:57:01.803Z,8.05
2022-10-24T20:59:28.458Z,6.18
2022-10-24T21:01:55.080Z,11.10
2022-10-24T21:04:21.893Z,6.47
2022-10-24T21:06:48.887Z,4.03
2022-10-24T21:09:15.606Z,8.48
2022-10-24T21:11:42.203Z,3.92
2022-10-24T21:14:12.469Z,6.93
2022-10-24T21:16:39.053Z,5.38
2022-10-24T21:19:05.630Z,3.50
2022-10-24T21:21:32.628Z,3.13
2022-10-24T21:24:05.648Z,4.03
2022-10-24T21:26:35.347Z,4.82
2022-10-24T21:29:14.949Z,2.95
2022-10-24T21:31:49.364Z,3.05
2022-10-24T21:34:16.019Z,4.57
2022-10-24T21:36:42.586Z,3.30
2022-10-24T21:39:13.813Z,7.95
2022-10-24T21:41:40.417Z,2.42
2022-10-24T21:44:07.120Z,2.92
2022-10-24T21:46:34.034Z,2.92
2022-10-24T21:49:00.974Z,3.25
2022-10-24T21:51:35.315Z,2.78
2022-10-24T21:54:20.014Z,2.90
2022-10-24T21:56:46.962Z,4.07
2022-10-24T21:59:16.804Z,1.95
2022-10-24T22:01:45.487Z,3.03
2022-10-24T22:04:13.797Z,3.83
2022-10-24T22:06:41.389Z,5.07
2022-10-24T22:09:11.190Z,3.20
2022-10-24T22:11:38.003Z,3.40
2022-10-24T22:14:05.848Z,2.30
2022-10-24T22:16:33.258Z,2.55
2022-10-24T22:19:01.990Z,2.75
2022-10-24T22:21:36.880Z,3.28
2022-10-24T22:24:11.473Z,3.72
2022-10-24T22:26:38.913Z,3.90
2022-10-24T22:29:07.366Z,2.90
2022-10-24T22:31:34.326Z,7.07
2022-10-24T22:34:01.508Z,3.42
2022-10-24T22:36:46.222Z,3.53
2022-10-24T22:39:16.073Z,4.10
2022-10-24T22:41:43.482Z,4.43
2022-10-24T22:44:12.585Z,3.70
2022-10-24T22:46:48.003Z,7.80
2022-10-24T22:49:24.803Z,5.57
2022-10-24T22:51:51.645Z,3.17
2022-10-24T22:54:23.942Z,3.03
2022-10-24T22:56:51.087Z,4.05
2022-10-24T22:59:18.025Z,3.42
2022-10-24T23:02:05.093Z,2.25
2022-10-24T23:05:05.141Z,6.32
2022-10-24T23:08:14.392Z,3.75
2022-10-24T23:10:41.158Z,2.80
2022-10-24T23:13:09.382Z,2.42
2022-10-24T23:15:36.219Z,2.42
2022-10-24T23:18:03.063Z,2.05
2022-10-24T23:20:29.614Z,2.40
2022-10-24T23:23:09.101Z,4.55
2022-10-24T23:25:50.046Z,3.40
2022-10-24T23:28:24.351Z,6.28
2022-10-24T23:30:51.130Z,3.28
2022-10-24T23:33:29.385Z,2.45
2022-10-24T23:35:59.252Z,2.60
2022-10-24T23:38:27.002Z,3.97
2022-10-24T23:40:53.940Z,2.08
2022-10-24T23:43:21.690Z,2.65
2022-10-24T23:45:55.982Z,3.45
2022-10-24T23:48:31.613Z,4.30
2022-10-24T23:51:08.511Z,4.70
2022-10-24T23:53:44.333Z,6.05
2022-10-24T23:56:12.524Z,4.78
2022-10-24T23:58:39.119Z,4.45
